sensor_id;sensor_type;location;lat;lon;timestamp;P1;durP1;ratioP1;P2;durP2;ratioP2
17955;SDS011;27666;51.498;11.966;2022-08-30T00:02:43;8.93;;;5.15;;
17955;SDS011;27666;51.498;11.966;2022-08-30T00:05:31;8.68;;;5.40;;
17955;SDS011;27666;51.498;11.966;2022-08-30T00:08:19;11.10;;;5.20;;
17955;SDS011;27666;51.498;11.966;2022-08-30T00:11:07;12.55;;;5.28;;
17955;SDS011;27666;51.498;11.966;2022-08-30T00:13:55;14.15;;;5.72;;
17955;SDS011;27666;51.498;11.966;2022-08-30T00:16:42;5.68;;;4.72;;
17955;SDS011;27666;51.498;11.966;2022-08-30T00:19:29;7.18;;;4.53;;
17955;SDS011;27666;51.498;11.966;2022-08-30T00:22:16;7.97;;;5.45;;
17955;SDS011;27666;51.498;11.966;2022-08-30T00:25:04;7.28;;;4.22;;
17955;SDS011;27666;51.498;11.966;2022-08-30T00:27:51;9.63;;;4.78;;
17955;SDS011;27666;51.498;11.966;2022-08-30T00:30:39;9.57;;;4.40;;
17955;SDS011;27666;51.498;11.966;2022-08-30T00:33:26;6.32;;;4.60;;
17955;SDS011;27666;51.498;11.966;2022-08-30T00:36:13;5.88;;;4.32;;
17955;SDS011;27666;51.498;11.966;2022-08-30T00:39:00;20.08;;;10.15;;
17955;SDS011;27666;51.498;11.966;2022-08-30T00:41:48;6.85;;;4.97;;
17955;SDS011;27666;51.498;11.966;2022-08-30T00:44:35;8.10;;;4.30;;
17955;SDS011;27666;51.498;11.966;2022-08-30T00:47:22;10.55;;;4.82;;
17955;SDS011;27666;51.498;11.966;2022-08-30T00:50:12;7.82;;;4.57;;
17955;SDS011;27666;51.498;11.966;2022-08-30T00:53:00;8.07;;;4.75;;
17955;SDS011;27666;51.498;11.966;2022-08-30T00:55:47;6.65;;;4.80;;
17955;SDS011;27666;51.498;11.966;2022-08-30T00:58:36;8.05;;;4.32;;
17955;SDS011;27666;51.498;11.966;2022-08-30T01:01:23;9.55;;;4.63;;
17955;SDS011;27666;51.498;11.966;2022-08-30T01:04:14;11.70;;;4.82;;
17955;SDS011;27666;51.498;11.966;2022-08-30T01:07:03;6.82;;;5.13;;
17955;SDS011;27666;51.498;11.966;2022-08-30T01:09:50;9.63;;;4.63;;
17955;SDS011;27666;51.498;11.966;2022-08-30T01:12:37;7.15;;;4.30;;
17955;SDS011;27666;51.498;11.966;2022-08-30T01:15:25;6.55;;;4.72;;
17955;SDS011;27666;51.498;11.966;2022-08-30T01:18:13;8.20;;;4.65;;
17955;SDS011;27666;51.498;11.966;2022-08-30T01:21:02;7.65;;;4.40;;
17955;SDS011;27666;51.498;11.966;2022-08-30T01:23:53;8.63;;;4.68;;
17955;SDS011;27666;51.498;11.966;2022-08-30T01:26:41;7.60;;;4.55;;
17955;SDS011;27666;51.498;11.966;2022-08-30T01:29:28;13.75;;;7.65;;
17955;SDS011;27666;51.498;11.966;2022-08-30T01:32:15;16.70;;;8.32;;
17955;SDS011;27666;51.498;11.966;2022-08-30T01:35:05;11.07;;;4.85;;
17955;SDS011;27666;51.498;11.966;2022-08-30T01:37:52;12.20;;;5.80;;
17955;SDS011;27666;51.498;11.966;2022-08-30T01:40:40;10.05;;;4.97;;
17955;SDS011;27666;51.498;11.966;2022-08-30T01:43:27;7.18;;;5.20;;
17955;SDS011;27666;51.498;11.966;2022-08-30T01:46:14;8.10;;;5.38;;
17955;SDS011;27666;51.498;11.966;2022-08-30T01:49:03;8.18;;;4.90;;
17955;SDS011;27666;51.498;11.966;2022-08-30T01:51:50;9.35;;;5.18;;
17955;SDS011;27666;51.498;11.966;2022-08-30T01:54:45;13.90;;;5.07;;
17955;SDS011;27666;51.498;11.966;2022-08-30T01:57:33;11.10;;;4.60;;
17955;SDS011;27666;51.498;11.966;2022-08-30T02:00:20;9.13;;;4.68;;
17955;SDS011;27666;51.498;11.966;2022-08-30T02:03:07;9.55;;;4.65;;
17955;SDS011;27666;51.498;11.966;2022-08-30T02:05:53;8.65;;;4.90;;
17955;SDS011;27666;51.498;11.966;2022-08-30T02:08:40;9.07;;;4.78;;
17955;SDS011;27666;51.498;11.966;2022-08-30T02:11:27;24.60;;;13.38;;
17955;SDS011;27666;51.498;11.966;2022-08-30T02:14:15;18.13;;;9.43;;
17955;SDS011;27666;51.498;11.966;2022-08-30T02:17:05;9.00;;;5.18;;
17955;SDS011;27666;51.498;11.966;2022-08-30T02:19:53;5.65;;;4.40;;
17955;SDS011;27666;51.498;11.966;2022-08-30T02:22:39;7.93;;;4.53;;
17955;SDS011;27666;51.498;11.966;2022-08-30T02:25:33;6.82;;;4.95;;
17955;SDS011;27666;51.498;11.966;2022-08-30T02:28:19;10.68;;;5.07;;
17955;SDS011;27666;51.498;11.966;2022-08-30T02:31:10;6.50;;;4.72;;
17955;SDS011;27666;51.498;11.966;2022-08-30T02:33:56;9.02;;;5.18;;
17955;SDS011;27666;51.498;11.966;2022-08-30T02:36:43;12.73;;;5.20;;
17955;SDS011;27666;51.498;11.966;2022-08-30T02:39:30;5.65;;;5.03;;
17955;SDS011;27666;51.498;11.966;2022-08-30T02:42:17;8.40;;;4.43;;
17955;SDS011;27666;51.498;11.966;2022-08-30T02:45:04;5.57;;;4.38;;
17955;SDS011;27666;51.498;11.966;2022-08-30T02:47:52;8.57;;;5.00;;
17955;SDS011;27666;51.498;11.966;2022-08-30T02:50:40;6.90;;;5.00;;
17955;SDS011;27666;51.498;11.966;2022-08-30T02:53:26;6.43;;;4.32;;
17955;SDS011;27666;51.498;11.966;2022-08-30T02:56:15;7.55;;;4.68;;
17955;SDS011;27666;51.498;11.966;2022-08-30T02:59:01;7.22;;;3.97;;
17955;SDS011;27666;51.498;11.966;2022-08-30T03:01:48;7.47;;;4.65;;
17955;SDS011;27666;51.498;11.966;2022-08-30T03:04:36;5.97;;;4.63;;
17955;SDS011;27666;51.498;11.966;2022-08-30T03:07:23;7.43;;;4.63;;
17955;SDS011;27666;51.498;11.966;2022-08-30T03:10:10;8.07;;;4.68;;
17955;SDS011;27666;51.498;11.966;2022-08-30T03:12:57;6.22;;;4.68;;
17955;SDS011;27666;51.498;11.966;2022-08-30T03:15:44;5.80;;;4.22;;
17955;SDS011;27666;51.498;11.966;2022-08-30T03:18:34;12.98;;;4.70;;
17955;SDS011;27666;51.498;11.966;2022-08-30T03:21:22;10.10;;;4.47;;
17955;SDS011;27666;51.498;11.966;2022-08-30T03:24:09;7.57;;;4.70;;
17955;SDS011;27666;51.498;11.966;2022-08-30T03:26:57;11.38;;;4.43;;
17955;SDS011;27666;51.498;11.966;2022-08-30T03:29:43;6.97;;;4.30;;
17955;SDS011;27666;51.498;11.966;2022-08-30T03:32:30;7.93;;;4.50;;
17955;SDS011;27666;51.498;11.966;2022-08-30T03:35:17;5.80;;;4.38;;
17955;SDS011;27666;51.498;11.966;2022-08-30T03:38:06;7.68;;;4.93;;
17955;SDS011;27666;51.498;11.966;2022-08-30T03:40:52;5.72;;;4.18;;
17955;SDS011;27666;51.498;11.966;2022-08-30T03:43:40;4.05;;;3.63;;
17955;SDS011;27666;51.498;11.966;2022-08-30T03:46:27;7.70;;;4.47;;
17955;SDS011;27666;51.498;11.966;2022-08-30T03:49:17;7.28;;;4.22;;
17955;SDS011;27666;51.498;11.966;2022-08-30T03:52:04;4.97;;;3.88;;
17955;SDS011;27666;51.498;11.966;2022-08-30T03:54:52;6.90;;;4.20;;
17955;SDS011;27666;51.498;11.966;2022-08-30T03:57:38;7.10;;;3.90;;
17955;SDS011;27666;51.498;11.966;2022-08-30T04:00:27;3.95;;;3.55;;
17955;SDS011;27666;51.498;11.966;2022-08-30T04:03:14;6.93;;;3.40;;
17955;SDS011;27666;51.498;11.966;2022-08-30T04:06:02;7.57;;;3.50;;
17955;SDS011;27666;51.498;11.966;2022-08-30T04:08:49;4.85;;;3.35;;
17955;SDS011;27666;51.498;11.966;2022-08-30T04:11:37;4.35;;;3.83;;
17955;SDS011;27666;51.498;11.966;2022-08-30T04:14:24;7.70;;;4.50;;
17955;SDS011;27666;51.498;11.966;2022-08-30T04:17:11;3.83;;;3.20;;
17955;SDS011;27666;51.498;11.966;2022-08-30T04:19:57;4.53;;;3.40;;
17955;SDS011;27666;51.498;11.966;2022-08-30T04:22:44;6.85;;;3.22;;
17955;SDS011;27666;51.498;11.966;2022-08-30T04:25:31;5.22;;;3.30;;
17955;SDS011;27666;51.498;11.966;2022-08-30T04:28:19;7.00;;;3.90;;
17955;SDS011;27666;51.498;11.966;2022-08-30T04:31:06;7.05;;;3.75;;
17955;SDS011;27666;51.498;11.966;2022-08-30T04:33:56;6.60;;;3.58;;
17955;SDS011;27666;51.498;11.966;2022-08-30T04:36:43;5.35;;;3.75;;
17955;SDS011;27666;51.498;11.966;2022-08-30T04:39:32;5.82;;;3.63;;
17955;SDS011;27666;51.498;11.966;2022-08-30T04:42:19;4.45;;;3.88;;
17955;SDS011;27666;51.498;11.966;2022-08-30T04:45:09;4.32;;;3.88;;
17955;SDS011;27666;51.498;11.966;2022-08-30T04:47:56;6.75;;;3.58;;
17955;SDS011;27666;51.498;11.966;2022-08-30T04:50:43;5.03;;;3.50;;
17955;SDS011;27666;51.498;11.966;2022-08-30T04:53:30;4.45;;;3.80;;
17955;SDS011;27666;51.498;11.966;2022-08-30T04:56:18;4.53;;;3.40;;
17955;SDS011;27666;51.498;11.966;2022-08-30T04:59:06;4.88;;;3.75;;
17955;SDS011;27666;51.498;11.966;2022-08-30T05:01:54;5.53;;;3.90;;
17955;SDS011;27666;51.498;11.966;2022-08-30T05:04:41;7.00;;;4.00;;
17955;SDS011;27666;51.498;11.966;2022-08-30T05:07:48;7.60;;;4.07;;
17955;SDS011;27666;51.498;11.966;2022-08-30T05:10:36;14.00;;;6.22;;
17955;SDS011;27666;51.498;11.966;2022-08-30T05:13:23;4.90;;;4.20;;
17955;SDS011;27666;51.498;11.966;2022-08-30T05:16:21;7.82;;;3.80;;
17955;SDS011;27666;51.498;11.966;2022-08-30T05:19:09;4.20;;;3.72;;
17955;SDS011;27666;51.498;11.966;2022-08-30T05:21:55;5.90;;;4.10;;
17955;SDS011;27666;51.498;11.966;2022-08-30T05:24:42;4.47;;;3.95;;
17955;SDS011;27666;51.498;11.966;2022-08-30T05:27:29;5.30;;;3.95;;
17955;SDS011;27666;51.498;11.966;2022-08-30T05:30:15;8.43;;;4.30;;
17955;SDS011;27666;51.498;11.966;2022-08-30T05:33:03;3.88;;;3.45;;
17955;SDS011;27666;51.498;11.966;2022-08-30T05:35:50;6.90;;;3.80;;
17955;SDS011;27666;51.498;11.966;2022-08-30T05:38:37;6.47;;;4.30;;
17955;SDS011;27666;51.498;11.966;2022-08-30T05:41:25;4.35;;;3.95;;
17955;SDS011;27666;51.498;11.966;2022-08-30T05:44:12;6.72;;;4.30;;
17955;SDS011;27666;51.498;11.966;2022-08-30T05:46:59;5.25;;;4.40;;
17955;SDS011;27666;51.498;11.966;2022-08-30T05:49:45;5.35;;;3.35;;
17955;SDS011;27666;51.498;11.966;2022-08-30T05:52:34;6.47;;;4.60;;
17955;SDS011;27666;51.498;11.966;2022-08-30T05:55:21;9.60;;;5.47;;
17955;SDS011;27666;51.498;11.966;2022-08-30T05:58:07;7.75;;;4.65;;
17955;SDS011;27666;51.498;11.966;2022-08-30T06:00:54;7.40;;;4.82;;
17955;SDS011;27666;51.498;11.966;2022-08-30T06:03:40;8.73;;;4.82;;
17955;SDS011;27666;51.498;11.966;2022-08-30T06:06:27;8.30;;;4.93;;
17955;SDS011;27666;51.498;11.966;2022-08-30T06:09:16;6.85;;;5.45;;
17955;SDS011;27666;51.498;11.966;2022-08-30T06:12:02;7.85;;;5.30;;
17955;SDS011;27666;51.498;11.966;2022-08-30T06:14:49;11.73;;;5.85;;
17955;SDS011;27666;51.498;11.966;2022-08-30T06:17:37;5.72;;;5.07;;
17955;SDS011;27666;51.498;11.966;2022-08-30T06:20:24;8.18;;;4.75;;
17955;SDS011;27666;51.498;11.966;2022-08-30T06:23:11;7.45;;;4.55;;
17955;SDS011;27666;51.498;11.966;2022-08-30T06:26:02;9.75;;;6.15;;
17955;SDS011;27666;51.498;11.966;2022-08-30T06:28:50;9.90;;;6.28;;
17955;SDS011;27666;51.498;11.966;2022-08-30T06:31:37;9.45;;;6.03;;
17955;SDS011;27666;51.498;11.966;2022-08-30T06:34:23;8.77;;;5.72;;
17955;SDS011;27666;51.498;11.966;2022-08-30T06:37:10;8.40;;;5.50;;
17955;SDS011;27666;51.498;11.966;2022-08-30T06:40:13;6.95;;;5.20;;
17955;SDS011;27666;51.498;11.966;2022-08-30T06:43:03;10.23;;;5.68;;
17955;SDS011;27666;51.498;11.966;2022-08-30T06:45:50;8.40;;;5.43;;
17955;SDS011;27666;51.498;11.966;2022-08-30T06:48:36;9.10;;;6.32;;
17955;SDS011;27666;51.498;11.966;2022-08-30T06:51:24;7.47;;;5.35;;
17955;SDS011;27666;51.498;11.966;2022-08-30T06:54:13;8.43;;;5.20;;
17955;SDS011;27666;51.498;11.966;2022-08-30T06:56:59;6.90;;;5.38;;
17955;SDS011;27666;51.498;11.966;2022-08-30T06:59:48;6.53;;;5.40;;
17955;SDS011;27666;51.498;11.966;2022-08-30T07:02:41;6.68;;;5.60;;
17955;SDS011;27666;51.498;11.966;2022-08-30T07:05:28;6.22;;;5.15;;
17955;SDS011;27666;51.498;11.966;2022-08-30T07:08:15;8.38;;;5.53;;
17955;SDS011;27666;51.498;11.966;2022-08-30T07:11:02;10.02;;;5.55;;
17955;SDS011;27666;51.498;11.966;2022-08-30T07:13:49;8.95;;;5.30;;
17955;SDS011;27666;51.498;11.966;2022-08-30T07:16:37;7.32;;;5.68;;
17955;SDS011;27666;51.498;11.966;2022-08-30T07:19:23;6.60;;;4.80;;
17955;SDS011;27666;51.498;11.966;2022-08-30T07:22:09;5.32;;;4.82;;
17955;SDS011;27666;51.498;11.966;2022-08-30T07:24:55;6.93;;;5.20;;
17955;SDS011;27666;51.498;11.966;2022-08-30T07:27:42;5.50;;;4.95;;
17955;SDS011;27666;51.498;11.966;2022-08-30T07:30:29;7.03;;;5.63;;
17955;SDS011;27666;51.498;11.966;2022-08-30T07:33:17;6.40;;;5.10;;
17955;SDS011;27666;51.498;11.966;2022-08-30T07:36:04;5.22;;;3.80;;
17955;SDS011;27666;51.498;11.966;2022-08-30T07:38:52;5.57;;;4.97;;
17955;SDS011;27666;51.498;11.966;2022-08-30T07:41:38;6.35;;;4.97;;
17955;SDS011;27666;51.498;11.966;2022-08-30T07:44:24;6.53;;;5.70;;
17955;SDS011;27666;51.498;11.966;2022-08-30T07:47:11;6.45;;;5.20;;
17955;SDS011;27666;51.498;11.966;2022-08-30T07:49:59;5.50;;;4.53;;
17955;SDS011;27666;51.498;11.966;2022-08-30T07:52:46;5.80;;;4.80;;
17955;SDS011;27666;51.498;11.966;2022-08-30T07:55:32;5.97;;;4.80;;
17955;SDS011;27666;51.498;11.966;2022-08-30T07:58:19;5.65;;;4.82;;
17955;SDS011;27666;51.498;11.966;2022-08-30T08:01:06;5.97;;;5.00;;
17955;SDS011;27666;51.498;11.966;2022-08-30T08:03:54;6.35;;;4.93;;
17955;SDS011;27666;51.498;11.966;2022-08-30T08:06:42;6.80;;;5.18;;
17955;SDS011;27666;51.498;11.966;2022-08-30T08:09:29;6.40;;;5.50;;
17955;SDS011;27666;51.498;11.966;2022-08-30T08:12:15;6.70;;;5.15;;
17955;SDS011;27666;51.498;11.966;2022-08-30T08:15:01;4.78;;;3.85;;
17955;SDS011;27666;51.498;11.966;2022-08-30T08:17:52;6.90;;;4.43;;
17955;SDS011;27666;51.498;11.966;2022-08-30T08:20:39;7.03;;;4.72;;
17955;SDS011;27666;51.498;11.966;2022-08-30T08:23:27;4.57;;;4.10;;
17955;SDS011;27666;51.498;11.966;2022-08-30T08:26:14;11.18;;;5.53;;
17955;SDS011;27666;51.498;11.966;2022-08-30T08:29:00;5.95;;;4.50;;
17955;SDS011;27666;51.498;11.966;2022-08-30T08:31:47;5.20;;;4.03;;
17955;SDS011;27666;51.498;11.966;2022-08-30T08:34:34;6.60;;;4.40;;
17955;SDS011;27666;51.498;11.966;2022-08-30T08:37:21;6.47;;;5.03;;
17955;SDS011;27666;51.498;11.966;2022-08-30T08:40:14;7.60;;;4.45;;
17955;SDS011;27666;51.498;11.966;2022-08-30T08:43:04;8.25;;;4.00;;
17955;SDS011;27666;51.498;11.966;2022-08-30T08:45:56;6.35;;;4.40;;
17955;SDS011;27666;51.498;11.966;2022-08-30T08:48:54;5.00;;;4.47;;
17955;SDS011;27666;51.498;11.966;2022-08-30T08:51:44;6.95;;;4.90;;
17955;SDS011;27666;51.498;11.966;2022-08-30T08:54:50;5.55;;;4.95;;
17955;SDS011;27666;51.498;11.966;2022-08-30T08:57:44;7.65;;;4.78;;
17955;SDS011;27666;51.498;11.966;2022-08-30T09:00:32;7.03;;;5.15;;
17955;SDS011;27666;51.498;11.966;2022-08-30T09:03:19;9.13;;;5.00;;
17955;SDS011;27666;51.498;11.966;2022-08-30T09:06:13;6.97;;;4.80;;
17955;SDS011;27666;51.498;11.966;2022-08-30T09:09:11;4.85;;;4.38;;
17955;SDS011;27666;51.498;11.966;2022-08-30T09:11:58;7.22;;;4.80;;
17955;SDS011;27666;51.498;11.966;2022-08-30T09:14:46;5.28;;;4.78;;
17955;SDS011;27666;51.498;11.966;2022-08-30T09:17:52;6.75;;;4.78;;
17955;SDS011;27666;51.498;11.966;2022-08-30T09:20:42;5.43;;;4.80;;
17955;SDS011;27666;51.498;11.966;2022-08-30T09:23:32;6.57;;;4.82;;
17955;SDS011;27666;51.498;11.966;2022-08-30T09:26:26;7.65;;;5.72;;
17955;SDS011;27666;51.498;11.966;2022-08-30T09:29:18;6.57;;;5.40;;
17955;SDS011;27666;51.498;11.966;2022-08-30T09:32:08;6.57;;;5.25;;
17955;SDS011;27666;51.498;11.966;2022-08-30T09:35:10;6.85;;;4.50;;
17955;SDS011;27666;51.498;11.966;2022-08-30T09:38:03;5.72;;;4.78;;
17955;SDS011;27666;51.498;11.966;2022-08-30T09:40:52;8.60;;;5.72;;
17955;SDS011;27666;51.498;11.966;2022-08-30T09:43:40;6.40;;;4.93;;
17955;SDS011;27666;51.498;11.966;2022-08-30T09:46:27;7.18;;;5.55;;
17955;SDS011;27666;51.498;11.966;2022-08-30T09:52:29;6.22;;;5.55;;
17955;SDS011;27666;51.498;11.966;2022-08-30T09:55:37;8.43;;;6.18;;
17955;SDS011;27666;51.498;11.966;2022-08-30T09:58:37;6.45;;;5.18;;
17955;SDS011;27666;51.498;11.966;2022-08-30T10:01:34;5.88;;;4.88;;
17955;SDS011;27666;51.498;11.966;2022-08-30T10:04:26;7.20;;;5.65;;
17955;SDS011;27666;51.498;11.966;2022-08-30T10:07:23;7.93;;;5.72;;
17955;SDS011;27666;51.498;11.966;2022-08-30T10:10:18;11.65;;;6.38;;
17955;SDS011;27666;51.498;11.966;2022-08-30T10:13:19;10.43;;;5.55;;
17955;SDS011;27666;51.498;11.966;2022-08-30T10:16:20;9.48;;;5.70;;
17955;SDS011;27666;51.498;11.966;2022-08-30T10:19:19;8.70;;;5.57;;
17955;SDS011;27666;51.498;11.966;2022-08-30T10:22:14;8.40;;;5.88;;
17955;SDS011;27666;51.498;11.966;2022-08-30T10:25:11;7.40;;;5.53;;
17955;SDS011;27666;51.498;11.966;2022-08-30T10:28:03;8.63;;;5.28;;
17955;SDS011;27666;51.498;11.966;2022-08-30T10:30:56;8.65;;;6.00;;
17955;SDS011;27666;51.498;11.966;2022-08-30T10:33:47;8.35;;;5.88;;
17955;SDS011;27666;51.498;11.966;2022-08-30T10:36:39;5.50;;;4.90;;
17955;SDS011;27666;51.498;11.966;2022-08-30T10:39:32;6.45;;;4.93;;
17955;SDS011;27666;51.498;11.966;2022-08-30T10:42:27;5.15;;;4.60;;
17955;SDS011;27666;51.498;11.966;2022-08-30T10:45:23;8.23;;;5.47;;
17955;SDS011;27666;51.498;11.966;2022-08-30T10:48:12;6.95;;;5.07;;
17955;SDS011;27666;51.498;11.966;2022-08-30T10:51:06;6.75;;;5.55;;
17955;SDS011;27666;51.498;11.966;2022-08-30T10:53:55;9.60;;;5.03;;
17955;SDS011;27666;51.498;11.966;2022-08-30T10:56:48;7.45;;;5.40;;
17955;SDS011;27666;51.498;11.966;2022-08-30T10:59:37;6.32;;;5.03;;
17955;SDS011;27666;51.498;11.966;2022-08-30T11:02:34;8.10;;;5.00;;
17955;SDS011;27666;51.498;11.966;2022-08-30T11:05:58;6.88;;;5.70;;
17955;SDS011;27666;51.498;11.966;2022-08-30T11:09:06;5.75;;;4.28;;
17955;SDS011;27666;51.498;11.966;2022-08-30T11:12:15;6.70;;;5.38;;
17955;SDS011;27666;51.498;11.966;2022-08-30T11:15:14;6.93;;;4.50;;
17955;SDS011;27666;51.498;11.966;2022-08-30T11:18:10;5.57;;;4.72;;
17955;SDS011;27666;51.498;11.966;2022-08-30T11:21:21;9.65;;;5.40;;
17955;SDS011;27666;51.498;11.966;2022-08-30T11:24:11;8.25;;;4.70;;
17955;SDS011;27666;51.498;11.966;2022-08-30T11:27:00;6.93;;;4.88;;
17955;SDS011;27666;51.498;11.966;2022-08-30T11:29:49;7.97;;;5.55;;
17955;SDS011;27666;51.498;11.966;2022-08-30T11:35:46;7.07;;;4.30;;
17955;SDS011;27666;51.498;11.966;2022-08-30T11:38:56;8.90;;;4.35;;
17955;SDS011;27666;51.498;11.966;2022-08-30T11:41:46;5.40;;;4.20;;
17955;SDS011;27666;51.498;11.966;2022-08-30T11:48:43;6.20;;;4.50;;
17955;SDS011;27666;51.498;11.966;2022-08-30T11:51:48;4.40;;;4.00;;
17955;SDS011;27666;51.498;11.966;2022-08-30T11:55:24;4.47;;;4.07;;
17955;SDS011;27666;51.498;11.966;2022-08-30T11:58:31;8.38;;;4.78;;
17955;SDS011;27666;51.498;11.966;2022-08-30T12:01:32;5.60;;;4.18;;
17955;SDS011;27666;51.498;11.966;2022-08-30T12:04:41;7.15;;;4.53;;
17955;SDS011;27666;51.498;11.966;2022-08-30T12:10:44;6.28;;;4.60;;
17955;SDS011;27666;51.498;11.966;2022-08-30T12:13:53;6.22;;;5.03;;
17955;SDS011;27666;51.498;11.966;2022-08-30T12:16:41;5.60;;;4.40;;
17955;SDS011;27666;51.498;11.966;2022-08-30T12:19:44;6.85;;;4.70;;
17955;SDS011;27666;51.498;11.966;2022-08-30T12:22:34;5.75;;;4.32;;
17955;SDS011;27666;51.498;11.966;2022-08-30T12:25:24;5.40;;;4.38;;
17955;SDS011;27666;51.498;11.966;2022-08-30T12:28:14;5.10;;;4.43;;
17955;SDS011;27666;51.498;11.966;2022-08-30T12:31:07;6.00;;;4.60;;
17955;SDS011;27666;51.498;11.966;2022-08-30T12:33:57;10.45;;;4.65;;
17955;SDS011;27666;51.498;11.966;2022-08-30T12:36:49;5.15;;;4.00;;
17955;SDS011;27666;51.498;11.966;2022-08-30T12:39:40;8.18;;;4.75;;
17955;SDS011;27666;51.498;11.966;2022-08-30T12:42:28;6.00;;;4.85;;
17955;SDS011;27666;51.498;11.966;2022-08-30T12:45:18;6.35;;;4.43;;
17955;SDS011;27666;51.498;11.966;2022-08-30T12:48:08;6.65;;;4.88;;
17955;SDS011;27666;51.498;11.966;2022-08-30T12:50:57;5.97;;;4.53;;
17955;SDS011;27666;51.498;11.966;2022-08-30T12:53:44;7.57;;;4.80;;
17955;SDS011;27666;51.498;11.966;2022-08-30T12:56:49;7.22;;;5.22;;
17955;SDS011;27666;51.498;11.966;2022-08-30T12:59:43;5.22;;;4.72;;
17955;SDS011;27666;51.498;11.966;2022-08-30T13:02:44;8.02;;;4.80;;
17955;SDS011;27666;51.498;11.966;2022-08-30T13:05:44;5.05;;;4.55;;
17955;SDS011;27666;51.498;11.966;2022-08-30T13:08:47;6.38;;;4.95;;
17955;SDS011;27666;51.498;11.966;2022-08-30T13:11:36;6.03;;;4.68;;
17955;SDS011;27666;51.498;11.966;2022-08-30T13:14:28;6.25;;;5.00;;
17955;SDS011;27666;51.498;11.966;2022-08-30T13:17:20;12.07;;;5.53;;
17955;SDS011;27666;51.498;11.966;2022-08-30T13:20:18;7.78;;;4.78;;
17955;SDS011;27666;51.498;11.966;2022-08-30T13:23:09;9.07;;;5.63;;
17955;SDS011;27666;51.498;11.966;2022-08-30T13:25:55;6.03;;;5.00;;
17955;SDS011;27666;51.498;11.966;2022-08-30T13:28:42;6.75;;;5.13;;
17955;SDS011;27666;51.498;11.966;2022-08-30T13:31:32;5.68;;;5.07;;
17955;SDS011;27666;51.498;11.966;2022-08-30T13:34:20;5.25;;;4.75;;
17955;SDS011;27666;51.498;11.966;2022-08-30T13:37:08;9.95;;;4.63;;
17955;SDS011;27666;51.498;11.966;2022-08-30T13:40:18;5.93;;;4.43;;
17955;SDS011;27666;51.498;11.966;2022-08-30T13:43:06;5.68;;;4.85;;
17955;SDS011;27666;51.498;11.966;2022-08-30T13:45:52;6.57;;;4.93;;
17955;SDS011;27666;51.498;11.966;2022-08-30T13:48:39;7.57;;;4.78;;
17955;SDS011;27666;51.498;11.966;2022-08-30T13:51:26;6.10;;;5.10;;
17955;SDS011;27666;51.498;11.966;2022-08-30T13:54:13;4.70;;;4.20;;
17955;SDS011;27666;51.498;11.966;2022-08-30T13:57:01;5.35;;;4.45;;
17955;SDS011;27666;51.498;11.966;2022-08-30T13:59:48;5.75;;;5.15;;
17955;SDS011;27666;51.498;11.966;2022-08-30T14:02:34;7.47;;;5.15;;
17955;SDS011;27666;51.498;11.966;2022-08-30T14:05:31;5.85;;;5.25;;
17955;SDS011;27666;51.498;11.966;2022-08-30T14:08:40;5.80;;;4.97;;
17955;SDS011;27666;51.498;11.966;2022-08-30T14:11:32;10.52;;;4.93;;
17955;SDS011;27666;51.498;11.966;2022-08-30T14:14:20;8.45;;;4.78;;
17955;SDS011;27666;51.498;11.966;2022-08-30T14:17:26;6.25;;;4.88;;
17955;SDS011;27666;51.498;11.966;2022-08-30T14:20:16;6.18;;;4.50;;
17955;SDS011;27666;51.498;11.966;2022-08-30T14:23:03;4.70;;;4.20;;
17955;SDS011;27666;51.498;11.966;2022-08-30T14:25:54;6.38;;;3.97;;
17955;SDS011;27666;51.498;11.966;2022-08-30T14:28:41;7.25;;;4.70;;
17955;SDS011;27666;51.498;11.966;2022-08-30T14:31:29;6.97;;;4.85;;
17955;SDS011;27666;51.498;11.966;2022-08-30T14:34:17;6.25;;;5.05;;
17955;SDS011;27666;51.498;11.966;2022-08-30T14:37:04;6.70;;;4.68;;
17955;SDS011;27666;51.498;11.966;2022-08-30T14:39:53;6.30;;;4.20;;
17955;SDS011;27666;51.498;11.966;2022-08-30T14:42:39;6.38;;;4.00;;
17955;SDS011;27666;51.498;11.966;2022-08-30T14:45:25;10.30;;;4.45;;
17955;SDS011;27666;51.498;11.966;2022-08-30T14:48:14;7.93;;;4.20;;
17955;SDS011;27666;51.498;11.966;2022-08-30T14:51:00;7.80;;;4.13;;
17955;SDS011;27666;51.498;11.966;2022-08-30T14:53:49;5.63;;;4.15;;
17955;SDS011;27666;51.498;11.966;2022-08-30T14:56:37;4.22;;;3.53;;
17955;SDS011;27666;51.498;11.966;2022-08-30T14:59:25;6.65;;;4.07;;
17955;SDS011;27666;51.498;11.966;2022-08-30T15:02:11;6.10;;;4.00;;
17955;SDS011;27666;51.498;11.966;2022-08-30T15:04:59;4.18;;;3.80;;
17955;SDS011;27666;51.498;11.966;2022-08-30T15:07:47;5.05;;;3.85;;
17955;SDS011;27666;51.498;11.966;2022-08-30T15:10:35;3.72;;;3.40;;
17955;SDS011;27666;51.498;11.966;2022-08-30T15:13:22;5.13;;;4.10;;
17955;SDS011;27666;51.498;11.966;2022-08-30T15:16:09;8.90;;;4.47;;
17955;SDS011;27666;51.498;11.966;2022-08-30T15:18:57;4.47;;;3.67;;
17955;SDS011;27666;51.498;11.966;2022-08-30T15:21:46;6.43;;;3.53;;
17955;SDS011;27666;51.498;11.966;2022-08-30T15:24:33;9.23;;;4.13;;
17955;SDS011;27666;51.498;11.966;2022-08-30T15:27:19;6.63;;;3.65;;
17955;SDS011;27666;51.498;11.966;2022-08-30T15:30:08;3.80;;;3.50;;
17955;SDS011;27666;51.498;11.966;2022-08-30T15:32:58;4.25;;;3.50;;
17955;SDS011;27666;51.498;11.966;2022-08-30T15:35:44;4.97;;;3.40;;
17955;SDS011;27666;51.498;11.966;2022-08-30T15:38:32;4.18;;;3.75;;
17955;SDS011;27666;51.498;11.966;2022-08-30T15:41:20;4.80;;;4.13;;
17955;SDS011;27666;51.498;11.966;2022-08-30T15:44:07;4.65;;;3.55;;
17955;SDS011;27666;51.498;11.966;2022-08-30T15:46:55;4.28;;;3.88;;
17955;SDS011;27666;51.498;11.966;2022-08-30T15:49:42;4.78;;;3.67;;
17955;SDS011;27666;51.498;11.966;2022-08-30T15:52:29;3.90;;;3.40;;
17955;SDS011;27666;51.498;11.966;2022-08-30T15:55:17;4.05;;;3.65;;
17955;SDS011;27666;51.498;11.966;2022-08-30T15:58:03;5.10;;;3.50;;
17955;SDS011;27666;51.498;11.966;2022-08-30T16:00:49;4.22;;;3.40;;
17955;SDS011;27666;51.498;11.966;2022-08-30T16:03:36;4.45;;;3.60;;
17955;SDS011;27666;51.498;11.966;2022-08-30T16:06:26;3.92;;;3.30;;
17955;SDS011;27666;51.498;11.966;2022-08-30T16:09:15;3.72;;;3.30;;
17955;SDS011;27666;51.498;11.966;2022-08-30T16:12:04;7.03;;;3.45;;
17955;SDS011;27666;51.498;11.966;2022-08-30T16:14:51;3.58;;;3.28;;
17955;SDS011;27666;51.498;11.966;2022-08-30T16:17:37;4.82;;;3.60;;
17955;SDS011;27666;51.498;11.966;2022-08-30T16:20:23;4.65;;;3.13;;
17955;SDS011;27666;51.498;11.966;2022-08-30T16:23:10;6.00;;;3.40;;
17955;SDS011;27666;51.498;11.966;2022-08-30T16:25:57;3.95;;;2.92;;
17955;SDS011;27666;51.498;11.966;2022-08-30T16:28:49;7.47;;;3.00;;
17955;SDS011;27666;51.498;11.966;2022-08-30T16:31:36;6.95;;;3.20;;
17955;SDS011;27666;51.498;11.966;2022-08-30T16:34:23;3.50;;;2.92;;
17955;SDS011;27666;51.498;11.966;2022-08-30T16:37:10;4.13;;;3.08;;
17955;SDS011;27666;51.498;11.966;2022-08-30T16:39:57;3.33;;;3.00;;
17955;SDS011;27666;51.498;11.966;2022-08-30T16:42:44;4.75;;;2.83;;
17955;SDS011;27666;51.498;11.966;2022-08-30T16:45:31;3.35;;;3.05;;
17955;SDS011;27666;51.498;11.966;2022-08-30T16:48:18;2.67;;;2.42;;
17955;SDS011;27666;51.498;11.966;2022-08-30T16:51:05;4.28;;;2.80;;
17955;SDS011;27666;51.498;11.966;2022-08-30T16:53:53;3.28;;;3.00;;
17955;SDS011;27666;51.498;11.966;2022-08-30T16:56:40;4.53;;;2.90;;
17955;SDS011;27666;51.498;11.966;2022-08-30T16:59:28;3.35;;;2.83;;
17955;SDS011;27666;51.498;11.966;2022-08-30T17:02:16;3.90;;;3.00;;